Time;durP1;ratioP1;P1;durP2;ratioP2;P2;SDS_P1;SDS_P2;PMS_P1;PMS_P2;Temp;Humidity;BMP_temperature;BMP_pressure;BME280_temperature;BME280_humidity;BME280_pressure;Samples;Min_cycle;Max_cycle;Signal;HPM_P1;HPM_P2
2021/12/11 00:01:25;;;;;;;0.20;0.20;;;-1.30;99.90;226.50;231333.00;;;;5046739;23;20730;-74
2021/12/11 00:04:00;;;;;;;0.20;0.20;;;-1.30;99.90;226.50;231333.00;;;;5002319;28;20687;-73
2021/12/11 00:06:32;;;;;;;0.10;0.10;;;-1.30;99.90;226.50;231333.00;;;;5017132;28;20289;-73
2021/12/11 00:09:14;;;;;;;0.10;0.10;;;-1.40;99.90;226.50;231333.00;;;;5000673;28;20187;-74
2021/12/11 00:11:48;;;;;;;0.10;0.10;;;-1.30;99.90;226.50;231333.00;;;;5002440;28;20282;-73
2021/12/11 00:14:17;;;;;;;0.20;0.20;;;-1.40;99.90;226.50;231333.00;;;;5006220;28;20200;-73
2021/12/11 00:16:45;;;;;;;0.20;0.20;;;-1.30;99.90;226.50;231333.00;;;;5004159;28;20242;-73
2021/12/11 00:19:19;;;;;;;0.20;0.20;;;-1.30;99.90;226.50;231333.00;;;;5003615;28;20196;-74
2021/12/11 00:21:49;;;;;;;0.20;0.20;;;-1.30;99.90;226.50;231333.00;;;;5010670;28;20267;-73
2021/12/11 00:24:24;;;;;;;0.20;0.20;;;-1.40;99.90;226.50;231333.00;;;;5024208;28;20196;-74
2021/12/11 00:26:58;;;;;;;0.10;0.10;;;-1.30;99.90;226.50;231333.00;;;;5011443;28;20231;-74
2021/12/11 00:29:29;;;;;;;0.20;0.20;;;-1.30;99.90;226.50;231333.00;;;;5020270;28;20208;-74
2021/12/11 00:32:01;;;;;;;0.20;0.20;;;-1.20;99.90;226.50;231333.00;;;;5000890;28;20705;-74
2021/12/11 00:34:30;;;;;;;0.20;0.20;;;-1.20;99.90;226.50;231333.00;;;;5001422;28;20255;-74
2021/12/11 00:37:03;;;;;;;0.20;0.20;;;-1.20;99.90;226.50;231333.00;;;;5002002;28;20199;-75
2021/12/11 00:39:37;;;;;;;0.10;0.10;;;-1.10;99.90;226.50;231333.00;;;;5009420;28;20208;-72
2021/12/11 00:42:12;;;;;;;0.20;0.20;;;-1.10;99.90;226.50;231333.00;;;;5007670;28;20232;-73
2021/12/11 00:44:46;;;;;;;0.10;0.10;;;-1.20;99.90;226.50;231333.00;;;;5007061;28;20245;-73
2021/12/11 00:47:18;;;;;;;0.20;0.20;;;-1.30;99.90;226.50;231333.00;;;;5006652;28;20192;-74
2021/12/11 00:49:52;;;;;;;0.10;0.10;;;-1.30;99.90;226.50;231333.00;;;;5008117;28;20196;-72
2021/12/11 00:52:30;;;;;;;0.10;0.10;;;-1.50;99.90;226.50;231333.00;;;;5007716;28;20191;-73
2021/12/11 00:55:01;;;;;;;0.20;0.20;;;-1.50;99.90;226.50;231333.00;;;;5007731;28;20246;-72
2021/12/11 00:57:30;;;;;;;0.10;0.10;;;-1.50;99.90;226.50;231333.00;;;;5006427;28;20204;-73
2021/12/11 01:00:02;;;;;;;0.10;0.10;;;-1.50;99.90;226.50;231333.00;;;;5008897;28;20218;-72
2021/12/11 01:02:32;;;;;;;0.10;0.10;;;-1.50;99.90;226.50;231333.00;;;;5023413;28;20199;-73
2021/12/11 01:05:01;;;;;;;0.20;0.20;;;-1.40;99.90;226.50;231333.00;;;;5017909;28;20274;-75
2021/12/11 01:07:32;;;;;;;0.20;0.20;;;-1.40;99.90;226.50;231333.00;;;;5020159;28;20613;-75
2021/12/11 01:10:07;;;;;;;0.20;0.20;;;-1.40;99.90;226.50;231333.00;;;;5019867;28;20195;-75
2021/12/11 01:12:45;;;;;;;0.20;0.20;;;-1.30;99.90;226.50;231333.00;;;;5019108;28;20191;-75
2021/12/11 01:15:20;;;;;;;0.20;0.20;;;-1.20;99.90;226.50;231333.00;;;;5019956;28;20195;-75
2021/12/11 01:18:03;;;;;;;0.10;0.10;;;-1.10;99.90;226.50;231333.00;;;;5018711;28;20626;-76
2021/12/11 01:20:48;;;;;;;0.20;0.20;;;-1.10;99.90;226.50;231333.00;;;;5019610;28;20590;-75
2021/12/11 01:23:33;;;;;;;0.20;0.20;;;-1.00;99.90;226.50;231333.00;;;;5019627;28;20207;-74
2021/12/11 01:26:04;;;;;;;0.20;0.20;;;-1.00;99.90;226.50;231333.00;;;;5019456;28;20211;-75
2021/12/11 01:28:35;;;;;;;0.10;0.10;;;-0.90;99.90;226.50;231333.00;;;;5019122;28;20250;-76
2021/12/11 01:31:07;;;;;;;0.10;0.10;;;-0.80;99.90;226.50;231333.00;;;;5020385;28;20265;-74
2021/12/11 01:33:37;;;;;;;0.20;0.20;;;-0.90;99.90;226.50;231333.00;;;;5019575;28;20204;-74
2021/12/11 01:36:08;;;;;;;0.20;0.20;;;-1.00;99.90;226.50;231333.00;;;;5017706;28;20230;-75
2021/12/11 01:38:36;;;;;;;0.20;0.20;;;-1.00;99.90;226.50;231333.00;;;;5033162;28;20724;-75
2021/12/11 01:41:12;;;;;;;0.10;0.10;;;-1.00;99.90;226.50;231333.00;;;;5020346;28;20226;-73
2021/12/11 01:43:42;;;;;;;0.10;0.10;;;-0.90;99.90;226.50;231333.00;;;;5022377;28;20187;-73
2021/12/11 01:46:11;;;;;;;0.20;0.20;;;-0.90;99.90;226.50;231333.00;;;;5020904;28;20693;-74
2021/12/11 01:48:45;;;;;;;0.20;0.20;;;-0.90;99.90;226.50;231333.00;;;;5024441;28;20187;-76
2021/12/11 01:51:22;;;;;;;0.10;0.10;;;-1.00;99.90;226.50;231333.00;;;;5023770;28;20222;-73
2021/12/11 01:53:58;;;;;;;0.10;0.10;;;-0.90;99.90;226.50;231333.00;;;;5023056;28;20207;-74
2021/12/11 01:56:31;;;;;;;0.20;0.20;;;-0.90;99.90;226.50;231333.00;;;;5020910;28;20207;-75
2021/12/11 01:59:07;;;;;;;0.10;0.10;;;-1.00;99.90;226.50;231333.00;;;;5021950;28;20204;-75
2021/12/11 02:01:43;;;;;;;0.20;0.20;;;-0.90;99.90;226.50;231333.00;;;;5022416;28;20226;-73
2021/12/11 02:04:18;;;;;;;0.20;0.20;;;-0.80;99.90;226.50;231333.00;;;;5022502;28;20278;-75
2021/12/11 02:06:50;;;;;;;0.10;0.10;;;-1.00;99.90;226.50;231333.00;;;;5021356;28;20227;-74
2021/12/11 02:09:25;;;;;;;0.10;0.10;;;-1.10;99.90;226.50;231333.00;;;;5022908;28;20226;-75
2021/12/11 02:12:07;;;;;;;0.20;0.20;;;-1.10;99.90;226.50;231333.00;;;;5022008;28;20663;-75
2021/12/11 02:14:44;;;;;;;0.10;0.10;;;-1.10;99.90;226.50;231333.00;;;;5023308;28;20246;-75
2021/12/11 02:17:23;;;;;;;0.20;0.20;;;-1.00;99.90;226.50;231333.00;;;;5022361;28;20194;-75
2021/12/11 02:19:55;;;;;;;0.20;0.20;;;-0.90;99.90;226.50;231333.00;;;;5023032;28;20202;-75
2021/12/11 02:22:29;;;;;;;0.20;0.20;;;-0.90;99.90;226.50;231333.00;;;;5022819;28;20219;-75
2021/12/11 02:25:03;;;;;;;0.10;0.10;;;-0.90;99.90;226.50;231333.00;;;;5022545;28;20199;-74
2021/12/11 02:27:40;;;;;;;0.10;0.10;;;-1.00;99.90;226.50;231333.00;;;;5022349;28;20222;-75
2021/12/11 02:30:21;;;;;;;0.20;0.20;;;-0.80;99.90;226.50;231333.00;;;;5022502;28;20668;-76
2021/12/11 02:32:57;;;;;;;0.10;0.10;;;-0.70;99.90;226.50;231333.00;;;;5021427;28;20197;-74
2021/12/11 02:35:37;;;;;;;0.10;0.10;;;-0.80;99.90;226.50;231333.00;;;;5022317;28;20209;-74
2021/12/11 02:38:14;;;;;;;0.10;0.10;;;-0.70;99.90;226.50;231333.00;;;;5021909;28;20201;-73
2021/12/11 02:40:50;;;;;;;0.17;0.17;;;-0.70;99.90;226.50;231333.00;;;;5021919;28;20276;-74
2021/12/11 02:43:29;;;;;;;0.20;0.20;;;-0.70;99.90;226.50;231333.00;;;;5023622;28;20191;-74
2021/12/11 02:46:03;;;;;;;0.10;0.10;;;-0.70;99.90;226.50;231333.00;;;;5023245;28;20687;-75
2021/12/11 02:48:37;;;;;;;0.10;0.10;;;-0.80;99.90;226.50;231333.00;;;;5021224;28;20237;-73
2021/12/11 02:51:15;;;;;;;0.17;0.17;;;-0.90;99.90;226.50;231333.00;;;;5021143;28;20222;-74
2021/12/11 02:53:50;;;;;;;0.10;0.10;;;-0.90;99.90;226.50;231333.00;;;;5021060;28;20195;-74
2021/12/11 02:56:25;;;;;;;0.10;0.10;;;-0.90;99.90;226.50;231333.00;;;;5022264;28;20218;-75
2021/12/11 02:58:58;;;;;;;0.10;0.10;;;-0.70;99.90;226.50;231333.00;;;;5023948;28;20254;-74
2021/12/11 03:01:32;;;;;;;0.10;0.10;;;-0.70;99.90;226.50;231333.00;;;;5022301;28;20227;-75
2021/12/11 03:04:12;;;;;;;0.10;0.10;;;-0.60;99.90;226.50;231333.00;;;;5021366;28;20731;-75
2021/12/11 03:06:45;;;;;;;0.10;0.10;;;-0.60;99.90;226.50;231333.00;;;;5024213;28;20234;-76
2021/12/11 03:09:19;;;;;;;0.20;0.20;;;-0.60;99.90;226.50;231333.00;;;;5022095;28;20262;-74
2021/12/11 03:11:48;;;;;;;0.10;0.10;;;-0.60;99.90;226.50;231333.00;;;;5023125;28;20270;-74
2021/12/11 03:14:18;;;;;;;0.10;0.10;;;-0.60;99.90;226.50;231333.00;;;;5022420;28;20617;-75
2021/12/11 03:16:50;;;;;;;0.10;0.10;;;-0.60;99.90;226.50;231333.00;;;;5021037;28;20191;-73
2021/12/11 03:19:23;;;;;;;0.10;0.10;;;-0.60;99.90;226.50;231333.00;;;;5018841;28;20191;-73
2021/12/11 03:21:54;;;;;;;0.10;0.10;;;-0.60;99.90;226.50;231333.00;;;;5020436;28;20223;-73
2021/12/11 03:24:26;;;;;;;0.10;0.10;;;-0.60;99.90;226.50;231333.00;;;;5019550;28;20199;-74
2021/12/11 03:26:57;;;;;;;0.10;0.10;;;-0.60;99.90;226.50;231333.00;;;;5019503;28;20203;-74
2021/12/11 03:29:26;;;;;;;0.10;0.10;;;-0.60;99.90;226.50;231333.00;;;;5021529;28;20196;-74
2021/12/11 03:31:54;;;;;;;0.15;0.15;;;-0.70;99.90;226.50;231333.00;;;;5020658;28;20258;-74
2021/12/11 03:34:25;;;;;;;0.15;0.15;;;-0.70;99.90;226.50;231333.00;;;;5020975;28;20199;-74
2021/12/11 03:36:56;;;;;;;0.10;0.10;;;-0.70;99.90;226.50;231333.00;;;;5020900;28;20246;-74
2021/12/11 03:39:31;;;;;;;0.20;0.20;;;-0.80;99.90;226.50;231333.00;;;;5020480;28;20627;-74
2021/12/11 03:42:05;;;;;;;0.10;0.10;;;-0.90;99.90;226.50;231333.00;;;;5020031;28;20214;-74
2021/12/11 03:44:34;;;;;;;0.10;0.10;;;-0.90;99.90;226.50;231333.00;;;;5021038;28;20184;-75
2021/12/11 03:47:09;;;;;;;0.10;0.10;;;-0.90;99.90;226.50;231333.00;;;;5020376;28;20571;-75
2021/12/11 03:49:38;;;;;;;0.20;0.20;;;-0.90;99.90;226.50;231333.00;;;;5035330;28;20202;-75
2021/12/11 03:52:10;;;;;;;0.10;0.10;;;-0.90;99.90;226.50;231333.00;;;;5017703;28;20719;-75
2021/12/11 03:54:44;;;;;;;0.17;0.17;;;-0.90;99.90;226.50;231333.00;;;;5018802;28;20661;-75
2021/12/11 03:57:16;;;;;;;0.20;0.20;;;-1.00;99.90;226.50;231333.00;;;;5020008;28;20210;-75
2021/12/11 03:59:47;;;;;;;0.10;0.10;;;-0.90;99.90;226.50;231333.00;;;;5022352;28;20290;-74
2021/12/11 04:02:20;;;;;;;0.10;0.10;;;-0.90;99.90;226.50;231333.00;;;;5021547;28;20195;-75
2021/12/11 04:04:52;;;;;;;0.20;0.20;;;-0.80;99.90;226.50;231333.00;;;;5020663;28;20278;-75
2021/12/11 04:07:27;;;;;;;0.20;0.20;;;-0.70;99.90;226.50;231333.00;;;;5021322;28;20208;-75
2021/12/11 04:09:57;;;;;;;0.10;0.10;;;-0.80;99.90;226.50;231333.00;;;;5020467;28;20203;-74
2021/12/11 04:12:27;;;;;;;0.10;0.10;;;-0.70;99.90;226.50;231333.00;;;;5022315;28;20261;-75
2021/12/11 04:14:57;;;;;;;0.10;0.10;;;-0.80;99.90;226.50;231333.00;;;;5020054;28;20742;-74
2021/12/11 04:17:28;;;;;;;0.10;0.10;;;-0.60;99.90;226.50;231333.00;;;;5020395;28;20199;-74
2021/12/11 04:20:01;;;;;;;0.10;0.10;;;-0.70;99.90;226.50;231333.00;;;;5018655;28;20215;-75
2021/12/11 04:22:29;;;;;;;0.10;0.10;;;-0.80;99.90;226.50;231333.00;;;;5020050;28;20696;-76
2021/12/11 04:24:58;;;;;;;0.10;0.10;;;-0.80;99.90;226.50;231333.00;;;;5020984;28;20191;-74
2021/12/11 04:27:27;;;;;;;0.10;0.10;;;-0.80;99.90;226.50;231333.00;;;;5020286;28;20278;-76
2021/12/11 04:29:56;;;;;;;0.10;0.10;;;-0.90;99.90;226.50;231333.00;;;;5021673;28;20825;-75
2021/12/11 04:32:31;;;;;;;0.10;0.10;;;-1.00;99.90;226.50;231333.00;;;;5023072;28;20684;-76
2021/12/11 04:34:59;;;;;;;0.10;0.10;;;-1.10;99.90;226.50;231333.00;;;;5022423;28;20199;-76
2021/12/11 04:37:30;;;;;;;0.20;0.20;;;-1.00;99.90;226.50;231333.00;;;;5021251;28;20889;-76
2021/12/11 04:40:07;;;;;;;0.20;0.20;;;-0.90;99.90;226.50;231333.00;;;;5020024;28;20186;-76
2021/12/11 04:42:49;;;;;;;0.20;0.20;;;-0.90;99.90;226.50;231333.00;;;;5021271;28;20672;-76
2021/12/11 04:45:22;;;;;;;0.20;0.20;;;-0.80;99.90;226.50;231333.00;;;;5021831;28;20222;-76
2021/12/11 04:47:55;;;;;;;0.20;0.20;;;-0.80;99.90;226.50;231333.00;;;;5023063;28;20630;-76
2021/12/11 04:50:36;;;;;;;0.17;0.17;;;-0.80;99.90;226.50;231333.00;;;;5019618;28;20219;-75
2021/12/11 04:53:18;;;;;;;0.20;0.20;;;-0.80;99.90;226.50;231333.00;;;;5021618;28;20249;-75
2021/12/11 04:56:00;;;;;;;0.10;0.10;;;-0.70;99.90;226.50;231333.00;;;;5021852;28;20230;-75
2021/12/11 04:58:53;;;;;;;0.20;0.20;;;-0.60;99.90;226.50;231333.00;;;;5021885;28;20252;-75
2021/12/11 05:01:40;;;;;;;0.10;0.10;;;-0.60;99.90;226.50;231333.00;;;;5022087;28;20703;-73
2021/12/11 05:04:33;;;;;;;0.20;0.20;;;-0.50;99.90;226.50;231333.00;;;;5019470;28;20241;-73
2021/12/11 05:07:06;;;;;;;0.10;0.10;;;-0.60;99.90;226.50;231333.00;;;;5019083;28;20198;-73
2021/12/11 05:09:52;;;;;;;0.10;0.10;;;-0.50;99.90;226.50;231333.00;;;;5020086;28;20515;-74
2021/12/11 05:12:33;;;;;;;0.17;0.17;;;-0.50;99.90;226.50;231333.00;;;;5020800;28;20187;-72
2021/12/11 05:15:04;;;;;;;0.10;0.10;;;-0.50;99.90;226.50;231333.00;;;;5022618;28;20225;-73
2021/12/11 05:17:33;;;;;;;0.10;0.10;;;-0.60;99.90;226.50;231333.00;;;;5022375;28;20269;-73
2021/12/11 05:20:01;;;;;;;0.10;0.10;;;-0.50;99.90;226.50;231333.00;;;;5023312;28;20626;-74
2021/12/11 05:22:29;;;;;;;0.13;0.13;;;-0.50;99.90;226.50;231333.00;;;;5021848;28;20199;-74
2021/12/11 05:24:58;;;;;;;0.10;0.10;;;-0.50;99.90;226.50;231333.00;;;;5023767;28;20237;-73
2021/12/11 05:27:28;;;;;;;0.10;0.10;;;-0.50;99.90;226.50;231333.00;;;;5023422;28;20602;-73
2021/12/11 05:29:56;;;;;;;0.10;0.10;;;-0.40;99.90;226.50;231333.00;;;;5024114;28;20242;-74
2021/12/11 05:32:27;;;;;;;0.10;0.10;;;-0.30;99.90;226.50;231333.00;;;;5024032;28;20657;-74
2021/12/11 05:34:57;;;;;;;0.10;0.10;;;-0.30;99.90;226.50;231333.00;;;;5036751;28;20295;-74
2021/12/11 05:37:26;;;;;;;0.10;0.10;;;-0.20;99.90;226.50;231333.00;;;;5021038;28;20208;-73
2021/12/11 05:39:55;;;;;;;0.10;0.10;;;-0.20;99.90;226.50;231333.00;;;;5022913;28;20261;-73
2021/12/11 05:42:23;;;;;;;0.10;0.10;;;-0.30;99.90;226.50;231333.00;;;;5021171;28;20195;-73
2021/12/11 05:44:52;;;;;;;0.13;0.13;;;-0.30;99.90;226.50;231333.00;;;;5022187;28;20259;-73
2021/12/11 05:47:21;;;;;;;0.10;0.10;;;-0.20;99.90;226.50;231333.00;;;;5021154;28;20199;-73
2021/12/11 05:49:49;;;;;;;0.10;0.10;;;-0.10;99.90;226.50;231333.00;;;;5025813;28;20207;-75
2021/12/11 05:52:20;;;;;;;0.15;0.15;;;-0.10;99.90;226.50;231333.00;;;;5037627;28;20203;-73
2021/12/11 05:54:48;;;;;;;0.10;0.10;;;-0.10;99.90;226.50;231333.00;;;;5023483;28;20274;-74
2021/12/11 05:57:18;;;;;;;0.10;0.10;;;-0.10;99.90;226.50;231333.00;;;;5021370;28;20786;-75
2021/12/11 05:59:49;;;;;;;0.10;0.10;;;0.00;99.90;226.50;231333.00;;;;5022859;28;20195;-73
2021/12/11 06:02:23;;;;;;;0.10;0.10;;;0.00;99.90;226.50;231333.00;;;;5078469;22;20285;-75
2021/12/11 06:04:57;;;;;;;0.17;0.17;;;0.00;99.90;226.50;231333.00;;;;5040648;28;20202;-75
2021/12/11 06:07:30;;;;;;;0.10;0.10;;;0.00;99.90;226.50;231333.00;;;;5040919;28;20899;-75
2021/12/11 06:10:04;;;;;;;0.10;0.10;;;0.00;99.90;226.50;231333.00;;;;5040856;28;20218;-76
2021/12/11 06:12:32;;;;;;;0.10;0.10;;;0.10;99.90;226.50;231333.00;;;;5021639;28;20214;-74
2021/12/11 06:15:01;;;;;;;0.10;0.10;;;0.10;99.90;226.50;231333.00;;;;5037312;28;20199;-76
2021/12/11 06:17:35;;;;;;;0.13;0.13;;;0.20;99.90;226.50;231333.00;;;;5037363;28;20255;-74
2021/12/11 06:20:08;;;;;;;0.10;0.10;;;0.20;99.90;226.50;231333.00;;;;5036447;28;20681;-76
2021/12/11 06:22:36;;;;;;;0.10;0.10;;;0.20;99.90;226.50;231333.00;;;;5036703;28;20196;-75
2021/12/11 06:25:10;;;;;;;0.10;0.10;;;0.20;99.90;226.50;231333.00;;;;5019103;28;20246;-76
2021/12/11 06:27:40;;;;;;;0.10;0.10;;;0.20;99.90;226.50;231333.00;;;;5021163;28;20202;-75
2021/12/11 06:30:12;;;;;;;0.10;0.10;;;0.20;99.90;226.50;231333.00;;;;5021373;28;20631;-76
2021/12/11 06:32:45;;;;;;;0.10;0.10;;;0.30;99.90;226.50;231333.00;;;;5020298;28;20195;-75
2021/12/11 06:35:24;;;;;;;0.10;0.10;;;0.20;99.90;226.50;231333.00;;;;5021923;28;20228;-75
2021/12/11 06:37:52;;;;;;;0.20;0.20;;;0.30;99.90;226.50;231333.00;;;;5036673;28;20616;-75
2021/12/11 06:40:22;;;;;;;0.10;0.10;;;0.30;99.90;226.50;231333.00;;;;5020890;28;20203;-76
2021/12/11 06:42:51;;;;;;;0.10;0.10;;;0.30;99.90;226.50;231333.00;;;;5021008;28;20192;-74
2021/12/11 06:45:21;;;;;;;0.20;0.20;;;0.30;99.90;226.50;231333.00;;;;5021395;28;20250;-75
2021/12/11 06:47:51;;;;;;;0.20;0.20;;;0.40;99.90;226.50;231333.00;;;;5026656;28;20199;-74
2021/12/11 06:50:20;;;;;;;0.10;0.10;;;0.40;99.90;226.50;231333.00;;;;5021883;28;20777;-74
2021/12/11 06:52:50;;;;;;;0.10;0.10;;;0.40;99.90;226.50;231333.00;;;;5027593;28;20206;-76
2021/12/11 06:55:20;;;;;;;0.10;0.10;;;0.50;99.90;226.50;231333.00;;;;5021363;28;20199;-75
2021/12/11 06:57:49;;;;;;;0.10;0.10;;;0.40;99.90;226.50;231333.00;;;;5019323;28;20742;-75
2021/12/11 07:00:21;;;;;;;0.10;0.10;;;0.40;99.90;226.50;231333.00;;;;5020691;28;20211;-74
2021/12/11 07:02:50;;;;;;;0.10;0.10;;;0.40;99.90;226.50;231333.00;;;;5027700;28;20537;-74
2021/12/11 07:05:18;;;;;;;0.10;0.10;;;0.40;99.90;226.50;231333.00;;;;5021363;28;20199;-75
2021/12/11 07:07:46;;;;;;;0.10;0.10;;;0.50;99.90;226.50;231333.00;;;;5018637;28;20241;-76
2021/12/11 07:10:19;;;;;;;0.15;0.15;;;0.50;99.90;226.50;231333.00;;;;5033815;28;20243;-77
2021/12/11 07:12:49;;;;;;;0.10;0.10;;;0.40;99.90;226.50;231333.00;;;;5021014;28;20200;-76
2021/12/11 07:15:18;;;;;;;0.10;0.10;;;0.40;99.90;226.50;231333.00;;;;5019681;28;20199;-74
2021/12/11 07:17:46;;;;;;;0.10;0.10;;;0.50;99.90;226.50;231333.00;;;;5020533;28;20203;-73
2021/12/11 07:20:17;;;;;;;0.10;0.10;;;0.50;99.90;226.50;231333.00;;;;5034852;28;20207;-73
2021/12/11 07:22:46;;;;;;;0.10;0.10;;;0.40;99.90;226.50;231333.00;;;;5019988;28;20202;-73
2021/12/11 07:25:23;;;;;;;0.10;0.10;;;0.40;99.90;226.50;231333.00;;;;5020822;28;20269;-74
2021/12/11 07:27:51;;;;;;;0.10;0.10;;;0.40;99.90;226.50;231333.00;;;;5034725;28;20196;-75
2021/12/11 07:30:19;;;;;;;0.10;0.10;;;0.40;99.90;226.50;231333.00;;;;5019193;28;20219;-74
2021/12/11 07:32:47;;;;;;;0.10;0.10;;;0.50;99.90;226.50;231333.00;;;;5035438;28;20250;-79
2021/12/11 07:35:17;;;;;;;0.20;0.20;;;0.50;99.90;226.50;231333.00;;;;5015760;28;20235;-75
2021/12/11 07:37:49;;;;;;;0.10;0.10;;;0.50;99.90;226.50;231333.00;;;;5018370;28;20245;-77
2021/12/11 07:40:20;;;;;;;0.10;0.10;;;0.50;99.90;226.50;231333.00;;;;5018893;28;20200;-76
2021/12/11 07:42:49;;;;;;;0.10;0.10;;;0.40;99.90;226.50;231333.00;;;;5019657;28;20246;-76
2021/12/11 07:45:20;;;;;;;0.10;0.10;;;0.50;99.90;226.50;231333.00;;;;5019840;28;20230;-78
2021/12/11 07:47:49;;;;;;;0.10;0.10;;;0.50;99.90;226.50;231333.00;;;;5020475;28;20321;-77
2021/12/11 07:50:20;;;;;;;0.10;0.10;;;0.40;99.90;226.50;231333.00;;;;5018431;28;20743;-77
2021/12/11 07:52:49;;;;;;;0.13;0.13;;;0.60;99.90;226.50;231333.00;;;;5020140;28;20241;-76
2021/12/11 07:55:18;;;;;;;0.10;0.10;;;0.60;99.90;226.50;231333.00;;;;5020471;28;20679;-75
2021/12/11 07:57:46;;;;;;;0.10;0.10;;;0.70;99.90;226.50;231333.00;;;;5017703;28;20195;-74
2021/12/11 08:00:22;;;;;;;0.10;0.10;;;0.70;99.90;226.50;231333.00;;;;5034983;28;20750;-75
2021/12/11 08:02:51;;;;;;;0.10;0.10;;;0.70;99.90;226.50;231333.00;;;;5019514;28;20184;-75
2021/12/11 08:05:21;;;;;;;0.10;0.10;;;0.80;99.90;226.50;231333.00;;;;5019489;28;20199;-73
2021/12/11 08:07:50;;;;;;;0.10;0.10;;;0.80;99.90;226.50;231333.00;;;;5018512;28;20188;-74
2021/12/11 08:10:22;;;;;;;0.10;0.10;;;0.90;99.90;226.50;231333.00;;;;5025479;28;20782;-73
2021/12/11 08:12:51;;;;;;;0.10;0.10;;;0.70;99.90;226.50;231333.00;;;;5033997;28;20648;-74
2021/12/11 08:15:20;;;;;;;0.10;0.10;;;0.70;99.90;226.50;231333.00;;;;5020625;28;20611;-75
2021/12/11 08:17:54;;;;;;;0.10;0.10;;;0.70;99.90;226.50;231333.00;;;;5020159;28;20261;-75
2021/12/11 08:20:29;;;;;;;0.10;0.10;;;0.70;99.90;226.50;231333.00;;;;5019585;28;20729;-74
2021/12/11 08:22:58;;;;;;;0.10;0.10;;;0.80;99.90;226.50;231333.00;;;;5021327;28;20199;-73
2021/12/11 08:25:30;;;;;;;0.10;0.10;;;0.90;99.90;226.50;231333.00;;;;5015908;28;20256;-74
2021/12/11 08:27:59;;;;;;;0.10;0.10;;;1.00;99.90;226.50;231333.00;;;;5023027;28;20223;-76
2021/12/11 08:30:32;;;;;;;0.10;0.10;;;0.90;99.90;226.50;231333.00;;;;5025300;28;20227;-73
2021/12/11 08:33:01;;;;;;;0.10;0.10;;;0.90;99.90;226.50;231333.00;;;;5017865;28;20230;-74
2021/12/11 08:35:31;;;;;;;0.10;0.10;;;1.00;99.90;226.50;231333.00;;;;5017776;28;20207;-73
2021/12/11 08:38:00;;;;;;;0.10;0.10;;;1.10;99.90;226.50;231333.00;;;;5018085;28;20242;-73
2021/12/11 08:40:33;;;;;;;0.10;0.10;;;1.20;99.90;226.50;231333.00;;;;5019992;28;20920;-73
2021/12/11 08:43:04;;;;;;;0.10;0.10;;;1.30;99.90;226.50;231333.00;;;;5020433;28;20195;-74
2021/12/11 08:45:45;;;;;;;0.10;0.10;;;1.30;99.90;226.50;231333.00;;;;5018724;28;20203;-73
2021/12/11 08:48:19;;;;;;;0.10;0.10;;;1.20;99.90;226.50;231333.00;;;;5019477;28;20199;-73
2021/12/11 08:50:54;;;;;;;0.20;0.20;;;1.10;99.90;226.50;231333.00;;;;5019255;28;20218;-73
2021/12/11 08:53:22;;;;;;;0.10;0.10;;;1.10;99.90;226.50;231333.00;;;;5020381;28;20213;-73
2021/12/11 08:55:54;;;;;;;0.10;0.10;;;1.10;99.90;226.50;231333.00;;;;5020281;28;20256;-74
2021/12/11 08:58:28;;;;;;;0.13;0.13;;;1.00;99.90;226.50;231333.00;;;;5017855;28;20203;-74
2021/12/11 09:01:02;;;;;;;0.10;0.10;;;1.00;99.90;226.50;231333.00;;;;5018941;28;20253;-73
2021/12/11 09:03:37;;;;;;;0.13;0.13;;;1.10;99.90;226.50;231333.00;;;;5019457;28;20209;-73
2021/12/11 09:06:13;;;;;;;0.10;0.10;;;1.00;99.90;226.50;231333.00;;;;5017702;28;20209;-73
2021/12/11 09:08:47;;;;;;;0.10;0.10;;;1.00;99.90;226.50;231333.00;;;;5018669;28;20661;-74
2021/12/11 09:11:24;;;;;;;0.10;0.10;;;1.00;99.90;226.50;231333.00;;;;5020070;28;20227;-74
2021/12/11 09:14:00;;;;;;;0.10;0.10;;;1.00;99.90;226.50;231333.00;;;;5018638;28;20257;-76
2021/12/11 09:16:37;;;;;;;0.10;0.10;;;1.00;99.90;226.50;231333.00;;;;5015010;28;20223;-73
2021/12/11 09:19:12;;;;;;;0.10;0.10;;;1.00;99.90;226.50;231333.00;;;;5034589;28;20202;-73
2021/12/11 09:21:50;;;;;;;0.10;0.10;;;1.00;99.90;226.50;231333.00;;;;5018437;28;20238;-73
2021/12/11 09:24:27;;;;;;;0.10;0.10;;;1.00;99.90;226.50;231333.00;;;;5019197;28;20209;-74
2021/12/11 09:26:59;;;;;;;0.10;0.10;;;1.00;99.90;226.50;231333.00;;;;5017889;28;20195;-73
2021/12/11 09:29:32;;;;;;;0.10;0.10;;;1.10;99.90;226.50;231333.00;;;;5016983;28;20325;-73
2021/12/11 09:32:12;;;;;;;0.10;0.10;;;1.30;99.90;226.50;231333.00;;;;5034075;28;20234;-74
2021/12/11 09:34:48;;;;;;;0.10;0.10;;;1.30;99.90;226.50;231333.00;;;;5017878;28;20199;-73
2021/12/11 09:37:18;;;;;;;0.17;0.17;;;1.30;99.90;226.50;231333.00;;;;5018988;28;20245;-73
2021/12/11 09:39:52;;;;;;;0.10;0.10;;;1.40;99.90;226.50;231333.00;;;;5018983;28;20286;-74
2021/12/11 09:42:20;;;;;;;0.10;0.10;;;1.40;99.90;226.50;158632.00;;;;5017628;28;20214;-74
2021/12/11 09:44:55;;;;;;;0.13;0.13;;;1.40;99.90;226.50;231333.00;;;;5022928;28;20200;-76
2021/12/11 09:47:31;;;;;;;0.10;0.10;;;1.40;99.90;226.50;231333.00;;;;5033424;28;20245;-76
2021/12/11 09:50:09;;;;;;;0.10;0.10;;;1.40;99.90;226.50;231333.00;;;;5034616;28;20715;-76
2021/12/11 09:52:41;;;;;;;0.10;0.10;;;1.50;99.90;226.50;231333.00;;;;5018149;28;20201;-75
2021/12/11 09:55:14;;;;;;;0.10;0.10;;;1.50;99.90;226.50;231333.00;;;;5018847;28;20603;-75
2021/12/11 09:57:48;;;;;;;0.10;0.10;;;1.50;99.90;226.50;231333.00;;;;5018532;28;20196;-75
2021/12/11 10:00:29;;;;;;;0.10;0.10;;;1.50;99.90;226.50;231333.00;;;;5016915;28;20230;-75
2021/12/11 10:02:57;;;;;;;0.20;0.20;;;1.50;99.90;226.50;231333.00;;;;5020323;28;20808;-75
2021/12/11 10:05:44;;;;;;;0.13;0.13;;;1.50;99.90;226.50;231333.00;;;;5028440;28;20205;-76
2021/12/11 10:08:30;;;;;;;0.10;0.10;;;1.50;99.90;226.50;231333.00;;;;5020561;28;20229;-75
2021/12/11 10:11:09;;;;;;;0.10;0.10;;;1.50;99.90;226.50;231333.00;;;;5023236;28;20237;-76
2021/12/11 10:13:45;;;;;;;0.10;0.10;;;1.50;99.90;226.50;231333.00;;;;5021616;28;20242;-75
2021/12/11 10:16:18;;;;;;;0.10;0.10;;;1.50;99.90;226.50;231333.00;;;;5019465;28;20187;-75
2021/12/11 10:18:51;;;;;;;0.10;0.10;;;1.50;99.90;226.50;231333.00;;;;5021532;28;20690;-75
2021/12/11 10:21:28;;;;;;;0.10;0.10;;;1.40;99.90;226.50;231333.00;;;;5022796;28;20273;-76
2021/12/11 10:24:01;;;;;;;0.10;0.10;;;1.30;99.90;226.50;231333.00;;;;5023101;28;20474;-76
2021/12/11 10:26:32;;;;;;;0.10;0.10;;;1.30;99.90;226.50;231333.00;;;;5022759;28;20200;-76
2021/12/11 10:29:07;;;;;;;0.10;0.10;;;1.40;99.90;226.50;231333.00;;;;5024122;28;20195;-76
2021/12/11 10:31:42;;;;;;;0.17;0.17;;;1.50;99.90;226.50;231333.00;;;;5023052;28;20226;-75
2021/12/11 10:34:15;;;;;;;0.10;0.10;;;1.50;99.90;226.50;231333.00;;;;5021525;28;20205;-75
2021/12/11 10:36:51;;;;;;;0.15;0.15;;;1.50;99.90;226.50;231333.00;;;;5021482;28;20262;-75
2021/12/11 10:39:20;;;;;;;0.10;0.10;;;1.60;99.90;226.50;231333.00;;;;5021774;28;20194;-75
2021/12/11 10:41:48;;;;;;;0.10;0.10;;;1.70;99.90;226.50;231333.00;;;;5020936;28;20219;-75
2021/12/11 10:44:23;;;;;;;0.10;0.10;;;1.70;99.90;226.50;231333.00;;;;5021422;28;20249;-76
2021/12/11 10:46:58;;;;;;;0.10;0.10;;;1.80;99.90;226.50;231333.00;;;;5020822;28;20238;-75
2021/12/11 10:49:27;;;;;;;0.10;0.10;;;1.90;99.90;226.50;231333.00;;;;5017896;28;20270;-76
2021/12/11 10:52:04;;;;;;;0.10;0.10;;;1.80;99.90;226.50;231333.00;;;;5020376;28;20238;-76
2021/12/11 10:54:32;;;;;;;0.10;0.10;;;1.80;99.90;226.50;231333.00;;;;5020922;28;20665;-76
2021/12/11 10:57:00;;;;;;;0.17;0.17;;;1.90;99.90;226.50;231333.00;;;;5035843;28;20191;-76
2021/12/11 10:59:32;;;;;;;0.10;0.10;;;1.90;99.90;226.50;231333.00;;;;5020260;28;20208;-76
2021/12/11 11:02:07;;;;;;;0.10;0.10;;;2.00;99.90;226.50;159086.00;;;;5022535;28;20222;-76
2021/12/11 11:04:39;;;;;;;0.10;0.10;;;2.00;99.90;226.50;231333.00;;;;5033438;28;20205;-75
2021/12/11 11:07:10;;;;;;;0.10;0.10;;;2.00;99.90;226.50;231333.00;;;;5021791;28;20203;-75